sensor_id;sensor_type;location;lat;lon;timestamp;pressure;altitude;pressure_sealevel;temperature;humidity
31285;BME280;56605;51.516;6.742;2023-01-28T00:01:39;102689.06;;;1.35;100.00
31285;BME280;56605;51.516;6.742;2023-01-28T00:04:04;102678.41;;;1.38;100.00
31285;BME280;56605;51.516;6.742;2023-01-28T00:06:30;102684.84;;;1.31;100.00
31285;BME280;56605;51.516;6.742;2023-01-28T00:08:55;102683.84;;;1.34;100.00
31285;BME280;56605;51.516;6.742;2023-01-28T00:11:20;102679.63;;;1.30;100.00
31285;BME280;56605;51.516;6.742;2023-01-28T00:13:52;102683.19;;;1.29;100.00
31285;BME280;56605;51.516;6.742;2023-01-28T00:16:18;102686.09;;;1.21;100.00
31285;BME280;56605;51.516;6.742;2023-01-28T00:18:44;102685.94;;;1.25;100.00
31285;BME280;56605;51.516;6.742;2023-01-28T00:21:11;102680.72;;;1.24;100.00
31285;BME280;56605;51.516;6.742;2023-01-28T00:23:39;102677.50;;;1.16;100.00
31285;BME280;56605;51.516;6.742;2023-01-28T00:26:08;102688.03;;;1.16;100.00
31285;BME280;56605;51.516;6.742;2023-01-28T00:28:34;102685.47;;;1.14;100.00
31285;BME280;56605;51.516;6.742;2023-01-28T00:31:28;102686.16;;;1.19;100.00
31285;BME280;56605;51.516;6.742;2023-01-28T00:33:53;102687.13;;;1.17;100.00
31285;BME280;56605;51.516;6.742;2023-01-28T00:36:20;102688.19;;;1.12;100.00
31285;BME280;56605;51.516;6.742;2023-01-28T00:38:57;102693.44;;;1.12;100.00
31285;BME280;56605;51.516;6.742;2023-01-28T00:41:25;102694.44;;;1.08;100.00
31285;BME280;56605;51.516;6.742;2023-01-28T00:43:52;102687.34;;;1.10;100.00
31285;BME280;56605;51.516;6.742;2023-01-28T00:46:18;102690.84;;;1.11;100.00
31285;BME280;56605;51.516;6.742;2023-01-28T00:48:44;102683.97;;;1.07;100.00
31285;BME280;56605;51.516;6.742;2023-01-28T00:51:11;102687.63;;;1.03;100.00
31285;BME280;56605;51.516;6.742;2023-01-28T00:53:36;102681.53;;;1.02;100.00
31285;BME280;56605;51.516;6.742;2023-01-28T00:56:03;102696.63;;;0.97;100.00
31285;BME280;56605;51.516;6.742;2023-01-28T00:58:28;102688.50;;;1.03;100.00
31285;BME280;56605;51.516;6.742;2023-01-28T01:00:54;102684.13;;;1.04;100.00
31285;BME280;56605;51.516;6.742;2023-01-28T01:03:19;102691.41;;;0.95;100.00
31285;BME280;56605;51.516;6.742;2023-01-28T01:05:45;102694.09;;;0.94;100.00
31285;BME280;56605;51.516;6.742;2023-01-28T01:08:11;102697.69;;;0.91;100.00
31285;BME280;56605;51.516;6.742;2023-01-28T01:10:37;102693.19;;;0.95;100.00
31285;BME280;56605;51.516;6.742;2023-01-28T01:13:04;102686.41;;;0.87;100.00
31285;BME280;56605;51.516;6.742;2023-01-28T01:15:30;102690.78;;;0.88;100.00
31285;BME280;56605;51.516;6.742;2023-01-28T01:17:56;102696.22;;;0.84;100.00
31285;BME280;56605;51.516;6.742;2023-01-28T01:20:24;102692.72;;;0.83;100.00
31285;BME280;56605;51.516;6.742;2023-01-28T01:22:50;102693.69;;;0.81;100.00
31285;BME280;56605;51.516;6.742;2023-01-28T01:25:16;102691.94;;;0.81;100.00
31285;BME280;56605;51.516;6.742;2023-01-28T01:27:43;102695.34;;;0.83;100.00
31285;BME280;56605;51.516;6.742;2023-01-28T01:30:10;102696.41;;;0.78;100.00
31285;BME280;56605;51.516;6.742;2023-01-28T01:32:37;102697.44;;;0.73;100.00
31285;BME280;56605;51.516;6.742;2023-01-28T01:35:04;102700.03;;;0.75;100.00
31285;BME280;56605;51.516;6.742;2023-01-28T01:37:35;102705.44;;;0.70;100.00
31285;BME280;56605;51.516;6.742;2023-01-28T01:40:02;102704.72;;;0.67;100.00
31285;BME280;56605;51.516;6.742;2023-01-28T01:42:30;102717.72;;;0.70;100.00
31285;BME280;56605;51.516;6.742;2023-01-28T01:45:02;102718.38;;;0.77;100.00
31285;BME280;56605;51.516;6.742;2023-01-28T01:47:54;102708.88;;;0.72;100.00
31285;BME280;56605;51.516;6.742;2023-01-28T01:50:33;102714.25;;;0.69;100.00
31285;BME280;56605;51.516;6.742;2023-01-28T01:53:07;102703.84;;;0.66;100.00
31285;BME280;56605;51.516;6.742;2023-01-28T01:55:34;102715.09;;;0.70;100.00
31285;BME280;56605;51.516;6.742;2023-01-28T01:58:04;102713.69;;;0.59;100.00
31285;BME280;56605;51.516;6.742;2023-01-28T02:00:30;102716.13;;;0.66;100.00
31285;BME280;56605;51.516;6.742;2023-01-28T02:02:56;102720.78;;;0.57;100.00
31285;BME280;56605;51.516;6.742;2023-01-28T02:05:23;102721.63;;;0.58;100.00
31285;BME280;56605;51.516;6.742;2023-01-28T02:07:51;102726.88;;;0.58;100.00
31285;BME280;56605;51.516;6.742;2023-01-28T02:10:19;102724.09;;;0.62;100.00
31285;BME280;56605;51.516;6.742;2023-01-28T02:12:49;102721.81;;;0.53;100.00
31285;BME280;56605;51.516;6.742;2023-01-28T02:15:21;102723.41;;;0.57;100.00
31285;BME280;56605;51.516;6.742;2023-01-28T02:17:48;102732.81;;;0.65;100.00
31285;BME280;56605;51.516;6.742;2023-01-28T02:20:20;102736.56;;;0.57;100.00
31285;BME280;56605;51.516;6.742;2023-01-28T02:28:54;102718.94;;;0.59;100.00
31285;BME280;56605;51.516;6.742;2023-01-28T02:31:26;102727.06;;;0.53;100.00
31285;BME280;56605;51.516;6.742;2023-01-28T02:39:03;102718.78;;;0.64;100.00
31285;BME280;56605;51.516;6.742;2023-01-28T02:41:37;102718.91;;;0.61;100.00
31285;BME280;56605;51.516;6.742;2023-01-28T02:44:05;102724.22;;;0.59;100.00
31285;BME280;56605;51.516;6.742;2023-01-28T02:49:38;102727.06;;;0.53;100.00
31285;BME280;56605;51.516;6.742;2023-01-28T02:54:45;102717.19;;;0.60;100.00
31285;BME280;56605;51.516;6.742;2023-01-28T02:57:39;102721.72;;;0.56;100.00
31285;BME280;56605;51.516;6.742;2023-01-28T03:00:23;102718.94;;;0.59;100.00
31285;BME280;56605;51.516;6.742;2023-01-28T03:05:46;102708.56;;;0.56;100.00
31285;BME280;56605;51.516;6.742;2023-01-28T03:08:31;102704.03;;;0.60;100.00
31285;BME280;56605;51.516;6.742;2023-01-28T03:11:16;102706.84;;;0.55;100.00
31285;BME280;56605;51.516;6.742;2023-01-28T03:14:00;102712.81;;;0.60;100.00
31285;BME280;56605;51.516;6.742;2023-01-28T03:16:45;102709.31;;;0.60;100.00
31285;BME280;56605;51.516;6.742;2023-01-28T03:19:29;102716.38;;;0.58;100.00
31285;BME280;56605;51.516;6.742;2023-01-28T03:22:13;102706.63;;;0.61;100.00
31285;BME280;56605;51.516;6.742;2023-01-28T03:24:58;102702.53;;;0.53;100.00
31285;BME280;56605;51.516;6.742;2023-01-28T03:27:49;102712.03;;;0.57;100.00
31285;BME280;56605;51.516;6.742;2023-01-28T03:30:39;102709.16;;;0.65;100.00
31285;BME280;56605;51.516;6.742;2023-01-28T03:33:25;102710.03;;;0.65;100.00
31285;BME280;56605;51.516;6.742;2023-01-28T03:36:09;102712.91;;;0.57;100.00
31285;BME280;56605;51.516;6.742;2023-01-28T03:38:53;102711.97;;;0.58;100.00
31285;BME280;56605;51.516;6.742;2023-01-28T03:41:21;102721.16;;;0.46;100.00
31285;BME280;56605;51.516;6.742;2023-01-28T03:43:47;102713.97;;;0.52;100.00
31285;BME280;56605;51.516;6.742;2023-01-28T03:46:12;102712.25;;;0.50;100.00
31285;BME280;56605;51.516;6.742;2023-01-28T03:48:38;102712.09;;;0.55;100.00
31285;BME280;56605;51.516;6.742;2023-01-28T03:51:03;102726.19;;;0.53;100.00
31285;BME280;56605;51.516;6.742;2023-01-28T03:53:28;102723.41;;;0.57;100.00
31285;BME280;56605;51.516;6.742;2023-01-28T03:55:54;102722.59;;;0.55;100.00
31285;BME280;56605;51.516;6.742;2023-01-28T03:58:21;102723.47;;;0.56;100.00
31285;BME280;56605;51.516;6.742;2023-01-28T04:00:53;102729.59;;;0.56;100.00
31285;BME280;56605;51.516;6.742;2023-01-28T04:03:20;102725.34;;;0.52;100.00
31285;BME280;56605;51.516;6.742;2023-01-28T04:05:57;102719.97;;;0.55;100.00
31285;BME280;56605;51.516;6.742;2023-01-28T04:08:23;102725.22;;;0.55;100.00
31285;BME280;56605;51.516;6.742;2023-01-28T04:10:49;102732.09;;;0.59;100.00
31285;BME280;56605;51.516;6.742;2023-01-28T04:13:14;102725.75;;;0.67;100.00
31285;BME280;56605;51.516;6.742;2023-01-28T04:15:41;102733.84;;;0.60;100.00
31285;BME280;56605;51.516;6.742;2023-01-28T04:18:07;102733.00;;;0.58;100.00
31285;BME280;56605;51.516;6.742;2023-01-28T04:20:33;102734.84;;;0.56;100.00
31285;BME280;56605;51.516;6.742;2023-01-28T04:22:58;102733.88;;;0.59;100.00
31285;BME280;56605;51.516;6.742;2023-01-28T04:25:24;102734.78;;;0.58;100.00
31285;BME280;56605;51.516;6.742;2023-01-28T04:27:49;102739.25;;;0.56;100.00
31285;BME280;56605;51.516;6.742;2023-01-28T04:30:15;102739.34;;;0.53;100.00
31285;BME280;56605;51.516;6.742;2023-01-28T04:32:40;102741.06;;;0.54;100.00
31285;BME280;56605;51.516;6.742;2023-01-28T04:35:06;102747.19;;;0.54;100.00
31285;BME280;56605;51.516;6.742;2023-01-28T04:37:31;102741.88;;;0.56;100.00
31285;BME280;56605;51.516;6.742;2023-01-28T04:39:56;102739.88;;;0.62;100.00
31285;BME280;56605;51.516;6.742;2023-01-28T04:42:21;102735.78;;;0.54;100.00
31285;BME280;56605;51.516;6.742;2023-01-28T04:44:47;102737.75;;;0.48;100.00
31285;BME280;56605;51.516;6.742;2023-01-28T04:47:12;102734.13;;;0.51;100.00
31285;BME280;56605;51.516;6.742;2023-01-28T04:49:37;102738.72;;;0.46;100.00
31285;BME280;56605;51.516;6.742;2023-01-28T04:52:03;102730.59;;;0.52;100.00
31285;BME280;56605;51.516;6.742;2023-01-28T04:54:28;102737.69;;;0.50;100.00
31285;BME280;56605;51.516;6.742;2023-01-28T04:56:53;102736.09;;;0.46;100.00
31285;BME280;56605;51.516;6.742;2023-01-28T04:59:20;102734.13;;;0.51;100.00
31285;BME280;56605;51.516;6.742;2023-01-28T05:01:45;102740.31;;;0.50;100.00
31285;BME280;56605;51.516;6.742;2023-01-28T05:04:10;102730.97;;;0.41;100.00
31285;BME280;56605;51.516;6.742;2023-01-28T05:06:36;102731.50;;;0.51;100.00
31285;BME280;56605;51.516;6.742;2023-01-28T05:09:01;102722.06;;;0.45;100.00
31285;BME280;56605;51.516;6.742;2023-01-28T05:11:27;102725.56;;;0.46;100.00
31285;BME280;56605;51.516;6.742;2023-01-28T05:13:54;102729.03;;;0.46;100.00
31285;BME280;56605;51.516;6.742;2023-01-28T05:16:19;102722.16;;;0.42;100.00
31285;BME280;56605;51.516;6.742;2023-01-28T05:18:44;102724.94;;;0.37;100.00
31285;BME280;56605;51.516;6.742;2023-01-28T05:21:12;102728.53;;;0.35;100.00
31285;BME280;56605;51.516;6.742;2023-01-28T05:23:37;102740.91;;;0.31;100.00
31285;BME280;56605;51.516;6.742;2023-01-28T05:26:02;102727.78;;;0.31;100.00
31285;BME280;56605;51.516;6.742;2023-01-28T05:28:28;102734.72;;;0.34;100.00
31285;BME280;56605;51.516;6.742;2023-01-28T05:30:53;102736.63;;;0.29;100.00
31285;BME280;56605;51.516;6.742;2023-01-28T05:33:18;102734.81;;;0.31;100.00
31285;BME280;56605;51.516;6.742;2023-01-28T05:35:44;102736.66;;;0.27;100.00
31285;BME280;56605;51.516;6.742;2023-01-28T05:38:09;102729.56;;;0.31;100.00
31285;BME280;56605;51.516;6.742;2023-01-28T05:40:34;102739.19;;;0.30;100.00
31285;BME280;56605;51.516;6.742;2023-01-28T05:42:59;102747.31;;;0.22;100.00
31285;BME280;56605;51.516;6.742;2023-01-28T05:45:25;102752.47;;;0.25;100.00
31285;BME280;56605;51.516;6.742;2023-01-28T05:47:50;102760.22;;;0.30;100.00
31285;BME280;56605;51.516;6.742;2023-01-28T05:50:16;102760.28;;;0.29;100.00
31285;BME280;56605;51.516;6.742;2023-01-28T05:52:41;102764.56;;;0.31;100.00
31285;BME280;56605;51.516;6.742;2023-01-28T05:55:07;102762.16;;;0.25;100.00
31285;BME280;56605;51.516;6.742;2023-01-28T05:57:32;102762.19;;;0.23;100.00
31285;BME280;56605;51.516;6.742;2023-01-28T05:59:58;102755.84;;;0.31;100.00
31285;BME280;56605;51.516;6.742;2023-01-28T06:02:23;102760.22;;;0.30;100.00
31285;BME280;56605;51.516;6.742;2023-01-28T06:04:48;102764.69;;;0.28;100.00
31285;BME280;56605;51.516;6.742;2023-01-28T06:07:13;102755.97;;;0.26;100.00
31285;BME280;56605;51.516;6.742;2023-01-28T06:09:43;102757.75;;;0.25;100.00
31285;BME280;56605;51.516;6.742;2023-01-28T06:12:08;102756.84;;;0.27;100.00
31285;BME280;56605;51.516;6.742;2023-01-28T06:14:34;102761.88;;;0.33;100.00
31285;BME280;56605;51.516;6.742;2023-01-28T06:16:59;102758.66;;;0.24;100.00
31285;BME280;56605;51.516;6.742;2023-01-28T06:19:24;102757.94;;;0.19;100.00
31285;BME280;56605;51.516;6.742;2023-01-28T06:21:49;102754.50;;;0.17;100.00
31285;BME280;56605;51.516;6.742;2023-01-28T06:24:15;102756.13;;;0.21;100.00
31285;BME280;56605;51.516;6.742;2023-01-28T06:26:40;102767.38;;;0.27;100.00
31285;BME280;56605;51.516;6.742;2023-01-28T06:29:05;102772.63;;;0.27;100.00
31285;BME280;56605;51.516;6.742;2023-01-28T06:31:31;102766.72;;;0.18;100.00
31285;BME280;56605;51.516;6.742;2023-01-28T06:33:56;102770.56;;;0.08;100.00
31285;BME280;56605;51.516;6.742;2023-01-28T06:36:21;102760.31;;;0.00;100.00
31285;BME280;56605;51.516;6.742;2023-01-28T06:38:47;102762.94;;;0.00;100.00
31285;BME280;56605;51.516;6.742;2023-01-28T06:41:12;102761.94;;;0.04;100.00
31285;BME280;56605;51.516;6.742;2023-01-28T06:43:37;102763.66;;;0.05;100.00
31285;BME280;56605;51.516;6.742;2023-01-28T06:46:03;102767.88;;;0.09;100.00
31285;BME280;56605;51.516;6.742;2023-01-28T06:48:28;102760.00;;;0.09;100.00
31285;BME280;56605;51.516;6.742;2023-01-28T06:50:53;102766.28;;;0.05;100.00
31285;BME280;56605;51.516;6.742;2023-01-28T06:53:19;102774.28;;;0.01;100.00
31285;BME280;56605;51.516;6.742;2023-01-28T06:55:45;102775.91;;;0.05;100.00
31285;BME280;56605;51.516;6.742;2023-01-28T06:58:11;102783.19;;;-0.04;100.00
31285;BME280;56605;51.516;6.742;2023-01-28T07:00:36;102772.63;;;-0.02;100.00
31285;BME280;56605;51.516;6.742;2023-01-28T07:03:02;102777.16;;;-0.07;100.00
31285;BME280;56605;51.516;6.742;2023-01-28T07:05:27;102781.31;;;0.00;100.00
31285;BME280;56605;51.516;6.742;2023-01-28T07:07:53;102785.63;;;0.03;100.00
31285;BME280;56605;51.516;6.742;2023-01-28T07:10:18;102792.59;;;0.04;100.00
31285;BME280;56605;51.516;6.742;2023-01-28T07:12:43;102775.28;;;-0.04;100.00
31285;BME280;56605;51.516;6.742;2023-01-28T07:15:09;102789.31;;;-0.03;100.00
31285;BME280;56605;51.516;6.742;2023-01-28T07:17:40;102778.25;;;-0.15;100.00
31285;BME280;56605;51.516;6.742;2023-01-28T07:20:06;102785.31;;;-0.17;100.00
31285;BME280;56605;51.516;6.742;2023-01-28T07:22:31;102774.19;;;-0.25;100.00
31285;BME280;56605;51.516;6.742;2023-01-28T07:24:57;102774.91;;;-0.20;100.00
31285;BME280;56605;51.516;6.742;2023-01-28T07:27:23;102782.78;;;-0.20;100.00
31285;BME280;56605;51.516;6.742;2023-01-28T07:29:48;102783.69;;;-0.21;100.00
31285;BME280;56605;51.516;6.742;2023-01-28T07:32:13;102777.66;;;-0.24;100.00
31285;BME280;56605;51.516;6.742;2023-01-28T07:34:38;102789.19;;;-0.29;100.00
31285;BME280;56605;51.516;6.742;2023-01-28T07:37:07;102784.63;;;-0.23;100.00
31285;BME280;56605;51.516;6.742;2023-01-28T07:39:32;102780.34;;;-0.26;100.00
31285;BME280;56605;51.516;6.742;2023-01-28T07:41:58;102782.00;;;-0.23;100.00
31285;BME280;56605;51.516;6.742;2023-01-28T07:44:24;102785.59;;;-0.26;100.00
31285;BME280;56605;51.516;6.742;2023-01-28T07:46:49;102796.84;;;-0.21;100.00
31285;BME280;56605;51.516;6.742;2023-01-28T07:49:14;102794.16;;;-0.19;100.00
31285;BME280;56605;51.516;6.742;2023-01-28T07:51:39;102791.59;;;-0.21;100.00
31285;BME280;56605;51.516;6.742;2023-01-28T07:54:05;102811.66;;;-0.20;100.00
31285;BME280;56605;51.516;6.742;2023-01-28T07:56:30;102820.25;;;-0.15;100.00
31285;BME280;56605;51.516;6.742;2023-01-28T07:58:56;102825.59;;;-0.18;100.00
31285;BME280;56605;51.516;6.742;2023-01-28T08:01:21;102825.38;;;-0.10;100.00
31285;BME280;56605;51.516;6.742;2023-01-28T08:03:46;102823.97;;;-0.22;100.00
31285;BME280;56605;51.516;6.742;2023-01-28T08:06:12;102829.97;;;-0.17;100.00
31285;BME280;56605;51.516;6.742;2023-01-28T08:08:37;102820.16;;;-0.11;100.00
31285;BME280;56605;51.516;6.742;2023-01-28T08:11:07;102822.16;;;-0.20;100.00
31285;BME280;56605;51.516;6.742;2023-01-28T08:13:33;102818.53;;;-0.16;100.00
31285;BME280;56605;51.516;6.742;2023-01-28T08:16:00;102821.25;;;-0.19;100.00
31285;BME280;56605;51.516;6.742;2023-01-28T08:18:25;102824.09;;;-0.27;100.00
31285;BME280;56605;51.516;6.742;2023-01-28T08:20:54;102818.09;;;-0.30;100.00
31285;BME280;56605;51.516;6.742;2023-01-28T08:23:20;102820.16;;;-0.11;100.00
31285;BME280;56605;51.516;6.742;2023-01-28T08:25:46;102835.13;;;-0.14;100.00
31285;BME280;56605;51.516;6.742;2023-01-28T08:28:13;102830.75;;;-0.15;100.00
31285;BME280;56605;51.516;6.742;2023-01-28T08:30:39;102842.25;;;-0.19;100.00
31285;BME280;56605;51.516;6.742;2023-01-28T08:33:06;102845.81;;;-0.20;100.00
31285;BME280;56605;51.516;6.742;2023-01-28T08:35:32;102858.00;;;-0.19;100.00
31285;BME280;56605;51.516;6.742;2023-01-28T08:37:59;102862.03;;;-0.07;100.00
31285;BME280;56605;51.516;6.742;2023-01-28T08:40:25;102858.50;;;-0.06;100.00
31285;BME280;56605;51.516;6.742;2023-01-28T08:42:52;102866.47;;;-0.09;100.00
31285;BME280;56605;51.516;6.742;2023-01-28T08:45:20;102872.06;;;-0.20;100.00
31285;BME280;56605;51.516;6.742;2023-01-28T08:47:53;102877.94;;;-0.11;100.00
31285;BME280;56605;51.516;6.742;2023-01-28T08:50:20;102891.38;;;-0.22;100.00
31285;BME280;56605;51.516;6.742;2023-01-28T08:52:46;102899.91;;;-0.14;100.00
31285;BME280;56605;51.516;6.742;2023-01-28T08:55:14;102887.31;;;-0.03;100.00
31285;BME280;56605;51.516;6.742;2023-01-28T08:57:39;102902.41;;;-0.09;100.00
31285;BME280;56605;51.516;6.742;2023-01-28T09:00:06;102896.44;;;-0.16;100.00
31285;BME280;56605;51.516;6.742;2023-01-28T09:02:31;102895.28;;;-0.06;100.00
31285;BME280;56605;51.516;6.742;2023-01-28T09:04:57;102906.06;;;-0.15;100.00
31285;BME280;56605;51.516;6.742;2023-01-28T09:07:22;102908.22;;;0.01;100.00
31285;BME280;56605;51.516;6.742;2023-01-28T09:09:47;102904.53;;;0.08;100.00
31285;BME280;56605;51.516;6.742;2023-01-28T09:12:13;102904.25;;;-0.13;100.00
31285;BME280;56605;51.516;6.742;2023-01-28T09:14:38;102905.59;;;0.01;100.00
31285;BME280;56605;51.516;6.742;2023-01-28T09:17:04;102914.94;;;0.11;100.00
31285;BME280;56605;51.516;6.742;2023-01-28T09:19:29;102908.28;;;0.29;100.00
31285;BME280;56605;51.516;6.742;2023-01-28T09:21:54;102915.78;;;0.13;100.00
31285;BME280;56605;51.516;6.742;2023-01-28T09:24:20;102916.69;;;0.10;100.00
31285;BME280;56605;51.516;6.742;2023-01-28T09:26:47;102917.81;;;0.02;100.00
31285;BME280;56605;51.516;6.742;2023-01-28T09:29:13;102928.13;;;0.09;100.00
31285;BME280;56605;51.516;6.742;2023-01-28T09:31:39;102917.59;;;0.09;100.00
31285;BME280;56605;51.516;6.742;2023-01-28T09:34:05;102921.47;;;0.28;100.00
31285;BME280;56605;51.516;6.742;2023-01-28T09:36:30;102917.75;;;0.35;100.00
31285;BME280;56605;51.516;6.742;2023-01-28T09:38:57;102924.53;;;0.12;100.00
31285;BME280;56605;51.516;6.742;2023-01-28T09:41:25;102930.63;;;0.14;100.00
31285;BME280;56605;51.516;6.742;2023-01-28T09:46:38;102929.66;;;0.17;100.00
31285;BME280;56605;51.516;6.742;2023-01-28T09:49:22;102923.88;;;0.05;100.00
31285;BME280;56605;51.516;6.742;2023-01-28T09:51:52;102926.97;;;-0.12;100.00
31285;BME280;56605;51.516;6.742;2023-01-28T09:54:32;102933.75;;;-0.03;100.00
31285;BME280;56605;51.516;6.742;2023-01-28T09:57:06;102921.16;;;0.08;100.00
31285;BME280;56605;51.516;6.742;2023-01-28T09:59:35;102922.03;;;0.09;100.00
31285;BME280;56605;51.516;6.742;2023-01-28T10:07:41;102929.41;;;-0.06;100.00
31285;BME280;56605;51.516;6.742;2023-01-28T10:10:16;102917.97;;;0.27;100.00
31285;BME280;56605;51.516;6.742;2023-01-28T10:16:04;102917.47;;;0.14;100.00
31285;BME280;56605;51.516;6.742;2023-01-28T10:18:44;102909.59;;;0.14;100.00
31285;BME280;56605;51.516;6.742;2023-01-28T10:21:17;102913.13;;;0.13;100.00
31285;BME280;56605;51.516;6.742;2023-01-28T10:23:58;102914.63;;;0.22;100.00
31285;BME280;56605;51.516;6.742;2023-01-28T10:26:31;102915.72;;;0.15;100.00
31285;BME280;56605;51.516;6.742;2023-01-28T10:29:02;102910.38;;;0.46;100.00
31285;BME280;56605;51.516;6.742;2023-01-28T10:31:31;102916.84;;;0.36;100.00
31285;BME280;56605;51.516;6.742;2023-01-28T10:33:59;102917.53;;;0.43;100.00
31285;BME280;56605;51.516;6.742;2023-01-28T10:36:25;102913.72;;;0.23;100.00
31285;BME280;56605;51.516;6.742;2023-01-28T10:38:51;102916.84;;;0.36;100.00
31285;BME280;56605;51.516;6.742;2023-01-28T10:41:21;102921.41;;;0.29;100.00
31285;BME280;56605;51.516;6.742;2023-01-28T10:43:48;102921.88;;;0.14;100.00
31285;BME280;56605;51.516;6.742;2023-01-28T10:46:22;102932.69;;;0.03;100.00
31285;BME280;56605;51.516;6.742;2023-01-28T10:48:59;102932.81;;;-0.02;100.00
31285;BME280;56605;51.516;6.742;2023-01-28T10:51:39;102934.13;;;0.15;100.00
31285;BME280;56605;51.516;6.742;2023-01-28T10:54:24;102929.94;;;0.07;100.00
31285;BME280;56605;51.516;6.742;2023-01-28T10:56:59;102929.56;;;-0.10;100.00
31285;BME280;56605;51.516;6.742;2023-01-28T10:59:33;102937.25;;;-0.04;100.00
31285;BME280;56605;51.516;6.742;2023-01-28T11:02:05;102935.31;;;0.03;100.00
31285;BME280;56605;51.516;6.742;2023-01-28T11:04:43;102935.69;;;0.20;100.00
31285;BME280;56605;51.516;6.742;2023-01-28T11:07:18;102948.78;;;0.22;100.00
31285;BME280;56605;51.516;6.742;2023-01-28T11:09:46;102947.00;;;-0.08;100.00
31285;BME280;56605;51.516;6.742;2023-01-28T11:12:23;102945.41;;;-0.14;100.00
31285;BME280;56605;51.516;6.742;2023-01-28T11:14:58;102938.41;;;-0.15;100.00
31285;BME280;56605;51.516;6.742;2023-01-28T11:17:30;102939.16;;;-0.09;100.00
31285;BME280;56605;51.516;6.742;2023-01-28T11:19:58;102940.34;;;0.10;100.00
31285;BME280;56605;51.516;6.742;2023-01-28T11:22:31;102937.97;;;0.03;100.00
31285;BME280;56605;51.516;6.742;2023-01-28T11:24:59;102937.28;;;-0.06;100.00
31285;BME280;56605;51.516;6.742;2023-01-28T11:27:29;102937.00;;;0.05;100.00
31285;BME280;56605;51.516;6.742;2023-01-28T11:29:59;102939.38;;;-0.17;100.00
31285;BME280;56605;51.516;6.742;2023-01-28T11:32:29;102935.22;;;-0.26;100.00
31285;BME280;56605;51.516;6.742;2023-01-28T11:34:55;102934.13;;;-0.17;100.00
31285;BME280;56605;51.516;6.742;2023-01-28T11:37:23;102939.56;;;-0.25;100.00
31285;BME280;56605;51.516;6.742;2023-01-28T11:40:00;102946.91;;;-0.05;100.00
31285;BME280;56605;51.516;6.742;2023-01-28T11:42:25;102939.31;;;-0.16;100.00
31285;BME280;56605;51.516;6.742;2023-01-28T11:44:51;102939.75;;;-0.31;100.00
31285;BME280;56605;51.516;6.742;2023-01-28T11:53:18;102917.94;;;-0.02;100.00
31285;BME280;56605;51.516;6.742;2023-01-28T12:01:35;102896.06;;;-0.02;100.00
31285;BME280;56605;51.516;6.742;2023-01-28T12:04:21;102893.06;;;-0.20;100.00
31285;BME280;56605;51.516;6.742;2023-01-28T12:12:17;102883.41;;;0.11;100.00
31285;BME280;56605;51.516;6.742;2023-01-28T12:20:57;102893.88;;;0.12;100.00
31285;BME280;56605;51.516;6.742;2023-01-28T12:24:05;102870.88;;;1.04;100.00
31285;BME280;56605;51.516;6.742;2023-01-28T12:27:04;102860.91;;;1.13;100.00
31285;BME280;56605;51.516;6.742;2023-01-28T12:29:43;102853.88;;;1.63;100.00
31285;BME280;56605;51.516;6.742;2023-01-28T12:35:04;102803.06;;;4.84;84.95
31285;BME280;56605;51.516;6.742;2023-01-28T12:41:19;102776.47;;;2.78;83.25
31285;BME280;56605;51.516;6.742;2023-01-28T12:43:32;102781.69;;;3.00;86.77
31285;BME280;56605;51.516;6.742;2023-01-28T12:48:53;102789.72;;;2.56;86.35
31285;BME280;56605;51.516;6.742;2023-01-28T12:51:28;102789.84;;;2.73;85.62
31285;BME280;56605;51.516;6.742;2023-01-28T12:54:01;102821.72;;;2.01;87.46
31285;BME280;56605;51.516;6.742;2023-01-28T12:56:43;102814.97;;;3.83;84.69
31285;BME280;56605;51.516;6.742;2023-01-28T12:59:17;102816.59;;;4.42;80.15
31285;BME280;56605;51.516;6.742;2023-01-28T13:01:50;102838.13;;;3.17;80.88
31285;BME280;56605;51.516;6.742;2023-01-28T13:04:41;102830.00;;;1.92;87.79
31285;BME280;56605;51.516;6.742;2023-01-28T13:07:16;102816.38;;;1.57;90.50
31285;BME280;56605;51.516;6.742;2023-01-28T13:09:48;102830.34;;;1.83;91.50
31285;BME280;56605;51.516;6.742;2023-01-28T13:12:17;102829.31;;;1.87;89.07
31285;BME280;56605;51.516;6.742;2023-01-28T13:14:44;102819.91;;;1.56;90.67
31285;BME280;56605;51.516;6.742;2023-01-28T13:17:11;102818.88;;;0.85;94.61
31285;BME280;56605;51.516;6.742;2023-01-28T13:19:39;102821.91;;;0.99;95.80
31285;BME280;56605;51.516;6.742;2023-01-28T13:22:21;102820.63;;;0.59;97.85
31285;BME280;56605;51.516;6.742;2023-01-28T13:24:50;102838.44;;;0.49;98.41
31285;BME280;56605;51.516;6.742;2023-01-28T13:27:22;102839.50;;;0.43;100.00
31285;BME280;56605;51.516;6.742;2023-01-28T13:29:47;102847.53;;;0.67;100.00
31285;BME280;56605;51.516;6.742;2023-01-28T13:32:32;102840.13;;;0.79;99.65
31285;BME280;56605;51.516;6.742;2023-01-28T13:35:04;102818.97;;;0.56;100.00
31285;BME280;56605;51.516;6.742;2023-01-28T13:37:33;102823.56;;;0.49;100.00
31285;BME280;56605;51.516;6.742;2023-01-28T13:42:36;102833.00;;;0.28;100.00
31285;BME280;56605;51.516;6.742;2023-01-28T13:47:41;102838.44;;;0.22;100.00
31285;BME280;56605;51.516;6.742;2023-01-28T13:50:15;102840.00;;;0.28;100.00
31285;BME280;56605;51.516;6.742;2023-01-28T13:53:04;102842.91;;;0.18;100.00
31285;BME280;56605;51.516;6.742;2023-01-28T13:55:37;102835.25;;;0.68;100.00
31285;BME280;56605;51.516;6.742;2023-01-28T14:03:52;102836.44;;;1.35;96.52
31285;BME280;56605;51.516;6.742;2023-01-28T14:19:59;102786.72;;;3.84;84.07
31285;BME280;56605;51.516;6.742;2023-01-28T14:22:25;102784.16;;;3.43;81.69
31285;BME280;56605;51.516;6.742;2023-01-28T14:24:50;102775.41;;;2.82;83.71
31285;BME280;56605;51.516;6.742;2023-01-28T14:27:21;102770.00;;;2.64;85.64